createdAt,value
2019-02-20T00:00:25.969Z,7.81
2019-02-20T00:05:25.957Z,7.86
2019-02-20T00:06:26.206Z,7.92
2019-02-20T00:07:25.848Z,7.88
2019-02-20T00:08:25.922Z,7.95
2019-02-20T00:09:25.761Z,7.96
2019-02-20T00:11:25.732Z,7.84
2019-02-20T00:12:25.690Z,7.87
2019-02-20T00:13:25.960Z,7.84
2019-02-20T00:15:25.611Z,7.87
2019-02-20T00:16:25.701Z,7.87
2019-02-20T00:17:25.674Z,7.80
2019-02-20T00:18:25.806Z,7.91
2019-02-20T00:19:25.584Z,7.84
2019-02-20T00:20:25.846Z,7.98
2019-02-20T00:21:25.492Z,7.88
2019-02-20T00:22:25.445Z,7.87
2019-02-20T00:23:25.421Z,7.86
2019-02-20T00:25:25.391Z,7.91
2019-02-20T00:26:25.412Z,7.86
2019-02-20T00:27:25.636Z,7.92
2019-02-20T00:28:25.321Z,7.92
2019-02-20T00:29:25.281Z,7.98
2019-02-20T00:30:25.264Z,7.96
2019-02-20T00:32:25.310Z,7.88
2019-02-20T00:33:25.196Z,7.86
2019-02-20T00:34:25.475Z,7.88
2019-02-20T00:35:25.153Z,7.91
2019-02-20T00:37:25.148Z,7.91
2019-02-20T00:38:25.180Z,7.84
2019-02-20T00:39:25.157Z,7.88
2019-02-20T00:40:25.331Z,7.84
2019-02-20T00:42:24.982Z,7.92
2019-02-20T00:43:24.961Z,7.96
2019-02-20T00:44:24.994Z,7.86
2019-02-20T00:45:24.907Z,7.88
2019-02-20T00:47:25.162Z,7.87
2019-02-20T00:48:24.842Z,7.88
2019-02-20T00:50:24.863Z,7.88
2019-02-20T00:57:25.238Z,7.83
2019-02-20T00:58:24.870Z,7.84
2019-02-20T00:59:24.776Z,7.88
2019-02-20T01:00:24.569Z,7.87
2019-02-20T01:01:24.546Z,7.83
2019-02-20T01:02:24.524Z,7.91
2019-02-20T01:04:24.571Z,7.81
2019-02-20T01:05:24.446Z,7.81
2019-02-20T01:06:24.429Z,7.78
2019-02-20T01:07:24.410Z,7.87
2019-02-20T01:08:24.374Z,7.96
2019-02-20T01:09:24.712Z,7.92
2019-02-20T01:10:24.337Z,7.84
2019-02-20T01:11:24.305Z,7.87
2019-02-20T01:12:24.281Z,7.86
2019-02-20T01:14:24.240Z,7.91
2019-02-20T01:15:24.570Z,7.84
2019-02-20T01:18:24.282Z,7.86
2019-02-20T01:19:24.128Z,7.78
2019-02-20T01:20:24.098Z,7.80
2019-02-20T01:21:24.144Z,7.80
2019-02-20T01:22:24.347Z,7.88
2019-02-20T01:23:24.045Z,7.87
2019-02-20T01:24:24.012Z,7.88
2019-02-20T01:25:23.979Z,7.88
2019-02-20T01:26:23.968Z,7.81
2019-02-20T01:27:23.983Z,7.80
2019-02-20T01:28:23.911Z,7.80
2019-02-20T01:29:23.892Z,7.78
2019-02-20T01:31:23.841Z,7.78
2019-02-20T01:32:23.822Z,7.80
2019-02-20T01:33:23.858Z,7.80
2019-02-20T01:34:23.925Z,7.78
2019-02-20T01:35:24.328Z,7.78
2019-02-20T01:36:24.708Z,7.81
2019-02-20T01:37:23.789Z,7.77
2019-02-20T01:39:23.810Z,7.88
2019-02-20T01:40:23.653Z,7.69
2019-02-20T01:42:23.883Z,7.81
2019-02-20T01:43:23.609Z,7.76
2019-02-20T01:44:23.536Z,7.86
2019-02-20T01:46:23.713Z,7.78
2019-02-20T01:48:23.739Z,7.83
2019-02-20T01:50:23.407Z,7.87
2019-02-20T01:53:23.381Z,7.80
2019-02-20T02:00:23.519Z,7.80
2019-02-20T02:02:23.120Z,7.76
2019-02-20T02:03:23.220Z,7.81
2019-02-20T02:04:23.073Z,7.77
2019-02-20T02:05:23.044Z,7.80
2019-02-20T02:06:23.435Z,7.80
2019-02-20T02:07:23.005Z,7.84
2019-02-20T02:08:23.006Z,7.81
2019-02-20T02:10:22.999Z,7.76
2019-02-20T02:11:22.909Z,7.78
2019-02-20T02:12:23.493Z,7.81
2019-02-20T02:13:22.865Z,7.76
2019-02-20T02:14:22.854Z,7.83
2019-02-20T02:15:22.822Z,7.78
2019-02-20T02:16:22.791Z,7.87
2019-02-20T02:17:22.867Z,7.71
2019-02-20T02:19:22.715Z,7.78
2019-02-20T02:21:22.933Z,7.74
2019-02-20T02:22:22.650Z,7.84
2019-02-20T02:23:22.724Z,7.81
2019-02-20T02:24:22.959Z,7.81
2019-02-20T02:25:22.578Z,7.74
2019-02-20T02:26:22.571Z,7.69
2019-02-20T02:27:22.607Z,7.71
2019-02-20T02:28:22.514Z,7.76
2019-02-20T02:29:22.486Z,7.84
2019-02-20T02:30:22.818Z,7.77
2019-02-20T02:31:22.438Z,7.77
2019-02-20T02:32:22.424Z,7.69
2019-02-20T02:33:22.409Z,7.74
2019-02-20T02:34:22.369Z,7.68
2019-02-20T02:35:22.867Z,7.68
2019-02-20T02:36:22.827Z,7.73
2019-02-20T02:37:22.451Z,7.68
2019-02-20T02:38:22.376Z,7.69
2019-02-20T02:39:22.250Z,7.62
2019-02-20T02:40:22.349Z,7.62
2019-02-20T02:41:22.350Z,7.58
2019-02-20T02:42:22.721Z,7.66
2019-02-20T02:43:23.006Z,7.71
2019-02-20T02:45:22.699Z,7.66
2019-02-20T02:46:22.258Z,7.64
2019-02-20T02:49:22.729Z,7.74
2019-02-20T02:50:22.150Z,7.74
2019-02-20T02:51:22.370Z,7.77
2019-02-20T02:52:22.832Z,7.61
2019-02-20T02:53:30.453Z,7.68
2019-02-20T02:56:22.211Z,7.66
2019-02-20T03:01:22.602Z,7.58
2019-02-20T03:02:21.766Z,7.64
2019-02-20T03:03:22.399Z,7.60
2019-02-20T03:04:21.674Z,7.54
2019-02-20T03:05:21.806Z,7.58
2019-02-20T03:06:21.742Z,7.61
2019-02-20T03:07:21.689Z,7.57
2019-02-20T03:08:21.909Z,7.61
2019-02-20T03:09:21.552Z,7.54
2019-02-20T03:10:21.844Z,7.55
2019-02-20T03:11:21.630Z,7.52
2019-02-20T03:12:21.951Z,7.58
2019-02-20T03:13:21.611Z,7.57
2019-02-20T03:14:21.483Z,7.55
2019-02-20T03:15:21.457Z,7.57
2019-02-20T03:16:21.464Z,7.52
2019-02-20T03:17:21.766Z,7.54
2019-02-20T03:18:21.382Z,7.54
2019-02-20T03:19:21.313Z,7.50
2019-02-20T03:20:21.354Z,7.47
2019-02-20T03:21:21.272Z,7.54
2019-02-20T03:22:21.399Z,7.46
2019-02-20T03:23:21.302Z,7.49
2019-02-20T03:24:21.688Z,7.49
2019-02-20T03:25:21.438Z,7.40
2019-02-20T03:26:21.347Z,7.42
2019-02-20T03:27:21.288Z,7.49
2019-02-20T03:28:21.186Z,7.52
2019-02-20T03:29:21.227Z,7.58
2019-02-20T03:31:21.501Z,7.58
2019-02-20T03:32:21.156Z,7.60
2019-02-20T03:33:21.001Z,7.57
2019-02-20T03:34:21.074Z,7.47
2019-02-20T03:36:21.609Z,7.55
2019-02-20T03:37:21.198Z,7.52
2019-02-20T03:38:30.033Z,7.54
2019-02-20T03:39:21.480Z,7.52
2019-02-20T03:40:20.943Z,7.52
2019-02-20T03:41:20.948Z,7.54
2019-02-20T03:42:20.933Z,7.52
2019-02-20T03:43:20.883Z,7.57
2019-02-20T03:44:21.202Z,7.50
2019-02-20T03:45:20.786Z,7.39
2019-02-20T03:47:20.746Z,7.37
2019-02-20T03:48:20.641Z,7.52
2019-02-20T03:49:20.705Z,7.49
2019-02-20T03:51:21.049Z,7.44
2019-02-20T03:52:20.658Z,7.42
2019-02-20T03:53:20.596Z,7.42
2019-02-20T03:56:20.611Z,7.39
2019-02-20T03:57:20.479Z,7.37
2019-02-20T03:58:20.701Z,7.40
2019-02-20T03:59:20.392Z,7.46
2019-02-20T04:00:20.369Z,7.39
2019-02-20T04:04:20.261Z,7.40
2019-02-20T04:05:20.531Z,7.36
2019-02-20T04:06:20.210Z,7.40
2019-02-20T04:07:20.352Z,7.40
2019-02-20T04:08:20.180Z,7.39
2019-02-20T04:09:20.198Z,7.34
2019-02-20T04:10:20.139Z,7.40
2019-02-20T04:11:20.097Z,7.37
2019-02-20T04:12:20.375Z,7.40
2019-02-20T04:13:20.154Z,7.36
2019-02-20T04:14:20.026Z,7.34
2019-02-20T04:15:20.098Z,7.28
2019-02-20T04:16:20.090Z,7.33
2019-02-20T04:17:20.001Z,7.33
2019-02-20T04:18:20.030Z,7.31
2019-02-20T04:19:20.416Z,7.33
2019-02-20T04:20:20.046Z,7.36
2019-02-20T04:21:20.145Z,7.28
2019-02-20T04:23:19.879Z,7.33
2019-02-20T04:24:19.878Z,7.40
2019-02-20T04:25:20.463Z,7.28
2019-02-20T04:26:20.049Z,7.33
2019-02-20T04:27:19.762Z,7.33
2019-02-20T04:28:19.700Z,7.28
2019-02-20T04:29:19.774Z,7.28
2019-02-20T04:30:19.643Z,7.31
2019-02-20T04:31:19.621Z,7.29
2019-02-20T04:32:19.600Z,7.21
2019-02-20T04:33:20.053Z,7.29
2019-02-20T04:34:19.550Z,7.29
2019-02-20T04:35:19.538Z,7.37
2019-02-20T04:37:19.487Z,7.33
2019-02-20T04:38:19.460Z,7.33
2019-02-20T04:39:19.490Z,7.33
2019-02-20T04:40:19.708Z,7.36
2019-02-20T04:41:19.510Z,7.31
2019-02-20T04:42:19.494Z,7.31
2019-02-20T04:43:19.474Z,7.33
2019-02-20T04:45:19.837Z,7.29
2019-02-20T04:46:19.391Z,7.29
2019-02-20T04:47:19.785Z,7.29
2019-02-20T04:48:19.216Z,7.33
2019-02-20T04:49:19.230Z,7.29
2019-02-20T04:50:19.177Z,7.29
2019-02-20T04:52:19.257Z,7.36
2019-02-20T04:55:19.052Z,7.37
2019-02-20T04:56:19.026Z,7.40
2019-02-20T04:57:19.069Z,7.36
2019-02-20T04:58:18.983Z,7.33
2019-02-20T04:59:19.257Z,7.28
2019-02-20T05:01:18.921Z,7.33
2019-02-20T05:05:19.169Z,7.28
2019-02-20T05:06:19.402Z,7.26
2019-02-20T05:07:31.611Z,7.36
2019-02-20T05:09:18.722Z,7.36
2019-02-20T05:10:18.700Z,7.34
2019-02-20T05:11:19.024Z,7.28
2019-02-20T05:12:18.652Z,7.37
2019-02-20T05:13:18.630Z,7.31
2019-02-20T05:14:18.607Z,7.33
2019-02-20T05:15:18.591Z,7.25
2019-02-20T05:16:18.557Z,7.29
2019-02-20T05:17:18.883Z,7.33
2019-02-20T05:18:18.518Z,7.34
2019-02-20T05:19:18.489Z,7.33
2019-02-20T05:20:18.466Z,7.31
2019-02-20T05:21:18.450Z,7.28
2019-02-20T05:22:18.417Z,7.29
2019-02-20T05:23:19.236Z,7.31
2019-02-20T05:24:24.498Z,7.36
2019-02-20T05:25:18.365Z,7.33
2019-02-20T05:27:18.372Z,7.34
2019-02-20T05:28:18.362Z,7.28
2019-02-20T05:29:18.428Z,7.24
2019-02-20T05:30:18.559Z,7.29
2019-02-20T05:31:18.461Z,7.28
2019-02-20T05:32:18.192Z,7.25
2019-02-20T05:33:18.233Z,7.33
2019-02-20T05:34:18.141Z,7.31
2019-02-20T05:35:18.176Z,7.26
2019-02-20T05:36:18.157Z,7.31
2019-02-20T05:37:18.384Z,7.29
2019-02-20T05:38:18.045Z,7.28
2019-02-20T05:39:18.238Z,7.25
2019-02-20T05:40:18.226Z,7.31
2019-02-20T05:41:18.019Z,7.28
2019-02-20T05:42:17.940Z,7.26
2019-02-20T05:43:17.925Z,7.28
2019-02-20T05:44:18.211Z,7.31
2019-02-20T05:45:17.988Z,7.26
2019-02-20T05:46:17.864Z,7.25
2019-02-20T05:47:17.878Z,7.31
2019-02-20T05:48:17.905Z,7.31
2019-02-20T05:49:17.862Z,7.29
2019-02-20T05:50:17.771Z,7.24
2019-02-20T05:51:18.159Z,7.29
2019-02-20T05:52:17.792Z,7.21
2019-02-20T05:54:18.577Z,7.29
2019-02-20T05:55:18.311Z,7.24
2019-02-20T05:57:18.581Z,7.29
2019-02-20T05:58:18.080Z,7.25
2019-02-20T05:59:17.802Z,7.25
2019-02-20T06:00:17.853Z,7.25
2019-02-20T06:06:17.728Z,7.16
2019-02-20T06:07:17.363Z,7.26
2019-02-20T06:08:17.443Z,7.28
2019-02-20T06:09:17.355Z,7.19
2019-02-20T06:10:17.279Z,7.24
2019-02-20T06:11:17.258Z,7.25
2019-02-20T06:12:17.386Z,7.31
2019-02-20T06:13:17.535Z,7.25
2019-02-20T06:14:17.266Z,7.22
2019-02-20T06:15:17.235Z,7.29
2019-02-20T06:16:17.150Z,7.29
2019-02-20T06:17:17.324Z,7.24
2019-02-20T06:18:17.557Z,7.31
2019-02-20T06:19:17.595Z,7.25
2019-02-20T06:20:17.072Z,7.24
2019-02-20T06:21:17.292Z,7.28
2019-02-20T06:22:17.011Z,7.26
2019-02-20T06:23:16.980Z,7.31
2019-02-20T06:24:17.325Z,7.25
2019-02-20T06:25:17.521Z,7.34
2019-02-20T06:26:17.078Z,7.16
2019-02-20T06:27:17.135Z,7.21
2019-02-20T06:28:17.126Z,7.21
2019-02-20T06:29:17.102Z,7.16
2019-02-20T06:30:17.133Z,7.15
2019-02-20T06:33:16.869Z,7.18
2019-02-20T06:35:16.939Z,7.19
2019-02-20T06:36:17.147Z,7.21
2019-02-20T06:37:17.263Z,7.25
2019-02-20T06:38:16.858Z,7.19
2019-02-20T06:39:16.743Z,7.21
2019-02-20T06:40:16.752Z,7.18
2019-02-20T06:41:16.960Z,7.16
2019-02-20T06:42:16.603Z,7.08
2019-02-20T06:43:17.167Z,7.11
2019-02-20T06:44:16.554Z,7.10
2019-02-20T06:45:16.454Z,7.21
2019-02-20T06:46:42.190Z,7.26
2019-02-20T06:47:16.482Z,7.19
2019-02-20T06:48:16.559Z,7.22
2019-02-20T06:49:16.687Z,7.22
2019-02-20T06:50:16.402Z,7.25
2019-02-20T06:51:16.347Z,7.26
2019-02-20T06:52:16.299Z,7.24
2019-02-20T06:53:16.287Z,7.21
2019-02-20T06:54:16.308Z,7.22
2019-02-20T06:55:16.518Z,7.19
2019-02-20T06:57:16.175Z,7.21
2019-02-20T06:58:16.146Z,7.19
2019-02-20T06:59:16.131Z,7.22
2019-02-20T07:00:16.238Z,7.24
2019-02-20T07:02:16.388Z,7.24
2019-02-20T07:03:16.341Z,7.31
2019-02-20T07:04:16.097Z,7.31
2019-02-20T07:05:15.982Z,7.29
2019-02-20T07:07:15.978Z,7.18
2019-02-20T07:08:16.209Z,7.18
2019-02-20T07:09:15.902Z,7.34
2019-02-20T07:10:16.673Z,7.24
2019-02-20T07:11:15.841Z,7.19
2019-02-20T07:12:15.820Z,7.22
2019-02-20T07:13:15.914Z,7.16
2019-02-20T07:14:16.080Z,7.25
2019-02-20T07:15:15.749Z,7.19
2019-02-20T07:16:15.719Z,7.24
2019-02-20T07:17:15.700Z,7.24
2019-02-20T07:18:15.669Z,7.21
2019-02-20T07:19:15.770Z,7.21
2019-02-20T07:20:15.950Z,7.22
2019-02-20T07:21:15.696Z,7.22
2019-02-20T07:22:16.040Z,7.25
2019-02-20T07:23:15.560Z,7.34
2019-02-20T07:24:15.543Z,7.31
2019-02-20T07:25:15.560Z,7.26
2019-02-20T07:27:15.478Z,7.28
2019-02-20T07:28:15.515Z,7.26
2019-02-20T07:29:15.489Z,7.24
2019-02-20T07:30:15.515Z,7.28
2019-02-20T07:31:15.460Z,7.31
2019-02-20T07:32:15.645Z,7.22
2019-02-20T07:33:15.324Z,7.31
2019-02-20T07:34:15.375Z,7.31
2019-02-20T07:36:15.323Z,7.36
2019-02-20T07:38:15.555Z,7.29
2019-02-20T07:39:15.191Z,7.33
2019-02-20T07:42:15.120Z,7.29
2019-02-20T07:43:15.099Z,7.28
2019-02-20T07:44:15.118Z,7.33
2019-02-20T07:45:15.426Z,7.36
2019-02-20T07:47:15.020Z,7.33
2019-02-20T07:48:14.981Z,7.39
2019-02-20T07:49:15.386Z,7.36
2019-02-20T07:50:14.972Z,7.40
2019-02-20T07:51:15.241Z,7.40
2019-02-20T07:52:14.892Z,7.40
2019-02-20T07:53:14.852Z,7.42
2019-02-20T07:54:14.912Z,7.43
2019-02-20T07:55:14.843Z,7.43
2019-02-20T07:56:14.859Z,7.40
2019-02-20T07:57:15.304Z,7.46
2019-02-20T07:58:14.852Z,7.46
2019-02-20T07:59:14.799Z,7.47
2019-02-20T08:00:14.730Z,7.39
2019-02-20T08:01:14.670Z,7.49
2019-02-20T08:02:14.850Z,7.49
2019-02-20T08:04:14.916Z,7.54
2019-02-20T08:09:14.686Z,7.58
2019-02-20T08:10:14.862Z,7.52
2019-02-20T08:13:14.457Z,7.58
2019-02-20T08:14:14.373Z,7.58
2019-02-20T08:15:14.469Z,7.64
2019-02-20T08:16:14.644Z,7.58
2019-02-20T08:17:14.377Z,7.55
2019-02-20T08:20:14.237Z,7.61
2019-02-20T08:21:14.721Z,7.68
2019-02-20T08:22:14.527Z,7.62
2019-02-20T08:23:14.168Z,7.77
2019-02-20T08:24:14.148Z,7.76
2019-02-20T08:25:22.482Z,7.74
2019-02-20T08:26:14.126Z,7.74
2019-02-20T08:27:14.222Z,7.81
2019-02-20T08:28:14.668Z,7.78
2019-02-20T08:29:14.182Z,7.86
2019-02-20T08:30:14.392Z,7.84
2019-02-20T08:31:14.129Z,7.96
2019-02-20T08:32:14.114Z,7.87
2019-02-20T08:33:14.135Z,7.95
2019-02-20T08:34:14.310Z,7.94
2019-02-20T08:35:13.890Z,7.99
2019-02-20T08:36:13.975Z,7.95
2019-02-20T08:37:13.867Z,7.96
2019-02-20T08:38:13.939Z,8.04
2019-02-20T08:39:13.858Z,8.10
2019-02-20T08:40:14.148Z,8.02
2019-02-20T08:41:13.758Z,8.02
2019-02-20T08:42:13.746Z,8.09
2019-02-20T08:43:13.714Z,8.09
2019-02-20T08:44:13.690Z,8.05
2019-02-20T08:47:13.741Z,8.10
2019-02-20T08:48:13.607Z,8.23
2019-02-20T08:49:13.574Z,8.17
2019-02-20T08:50:13.677Z,8.20
2019-02-20T08:51:13.830Z,8.31
2019-02-20T08:52:13.863Z,8.23
2019-02-20T08:53:13.501Z,8.34
2019-02-20T08:54:13.456Z,8.17
2019-02-20T08:55:13.465Z,8.23
2019-02-20T08:56:13.418Z,8.29
2019-02-20T08:57:13.448Z,8.23
2019-02-20T08:58:13.771Z,8.31
2019-02-20T08:59:13.391Z,8.23
2019-02-20T09:00:13.443Z,8.28
2019-02-20T09:01:13.321Z,8.19
2019-02-20T09:02:13.336Z,8.21
2019-02-20T09:03:13.346Z,8.29
2019-02-20T09:04:13.650Z,8.19
2019-02-20T09:05:13.240Z,8.32
2019-02-20T09:06:13.328Z,8.38
2019-02-20T09:07:13.311Z,8.31
2019-02-20T09:08:13.155Z,8.41
2019-02-20T09:09:13.217Z,8.28
2019-02-20T09:10:13.743Z,8.28
2019-02-20T09:12:13.759Z,8.31
2019-02-20T09:13:13.370Z,8.38
2019-02-20T09:14:13.204Z,8.28
2019-02-20T09:15:13.069Z,8.38
2019-02-20T09:17:13.432Z,8.57
2019-02-20T09:18:13.120Z,8.53
2019-02-20T09:19:13.022Z,8.56
2019-02-20T09:20:12.998Z,8.68
2019-02-20T09:21:13.336Z,8.62
2019-02-20T09:22:13.311Z,8.74
2019-02-20T09:23:13.208Z,8.90
2019-02-20T09:24:12.812Z,8.71
2019-02-20T09:25:19.989Z,8.59
2019-02-20T09:27:12.834Z,8.75
2019-02-20T09:28:12.821Z,8.78
2019-02-20T09:29:13.067Z,8.75
2019-02-20T09:30:13.521Z,8.70
2019-02-20T09:32:12.745Z,8.86
2019-02-20T09:33:12.700Z,8.88
2019-02-20T09:34:12.610Z,8.89
2019-02-20T09:35:12.882Z,8.92
2019-02-20T09:36:12.606Z,8.89
2019-02-20T09:37:12.531Z,8.86
2019-02-20T09:38:12.510Z,9.03
2019-02-20T09:39:12.534Z,8.98
2019-02-20T09:40:12.486Z,8.93
2019-02-20T09:41:12.793Z,8.96
2019-02-20T09:42:12.525Z,9.03
2019-02-20T09:43:12.489Z,9.09
2019-02-20T09:44:12.424Z,9.04
2019-02-20T09:45:12.544Z,9.30
2019-02-20T09:46:12.419Z,9.62
2019-02-20T09:47:12.735Z,9.52
2019-02-20T09:48:12.407Z,9.55
2019-02-20T09:49:12.385Z,9.48
2019-02-20T09:50:12.296Z,9.50
2019-02-20T09:51:12.297Z,9.63
2019-02-20T09:52:12.231Z,9.63
2019-02-20T09:53:12.494Z,9.77
2019-02-20T09:54:12.171Z,9.78
2019-02-20T09:55:12.182Z,9.60
2019-02-20T09:56:12.245Z,9.91
2019-02-20T09:57:12.198Z,10.01
2019-02-20T09:58:12.113Z,10.06
2019-02-20T09:59:12.422Z,10.93
2019-02-20T10:00:12.117Z,11.23
2019-02-20T10:01:12.027Z,11.13
2019-02-20T10:02:12.108Z,11.12
2019-02-20T10:03:12.040Z,10.91
2019-02-20T10:04:12.093Z,11.00
2019-02-20T10:05:12.251Z,11.12
2019-02-20T10:06:13.039Z,10.80
2019-02-20T10:07:11.908Z,10.78
2019-02-20T10:08:11.910Z,10.75
2019-02-20T10:09:11.930Z,10.76
2019-02-20T10:10:11.861Z,10.75
2019-02-20T10:11:12.338Z,10.46
2019-02-20T10:12:11.829Z,10.48
2019-02-20T10:13:11.795Z,10.62
2019-02-20T10:14:11.897Z,10.68
2019-02-20T10:15:11.811Z,10.43
2019-02-20T10:16:12.272Z,10.43
2019-02-20T10:17:12.733Z,10.68
2019-02-20T10:18:12.310Z,10.98
2019-02-20T10:19:11.683Z,11.01
2019-02-20T10:20:11.933Z,11.12
2019-02-20T10:21:11.776Z,10.95
2019-02-20T10:22:11.684Z,11.15
2019-02-20T10:23:12.807Z,11.23
2019-02-20T10:24:12.120Z,11.25
2019-02-20T10:25:11.714Z,10.79
2019-02-20T10:26:11.671Z,10.78
2019-02-20T10:27:11.883Z,10.64
2019-02-20T10:28:11.581Z,10.80
2019-02-20T10:30:11.477Z,10.73
2019-02-20T10:31:11.524Z,10.49
2019-02-20T10:32:11.553Z,10.68
2019-02-20T10:33:11.524Z,10.82
2019-02-20T10:34:11.405Z,11.09
2019-02-20T10:35:11.702Z,11.16
2019-02-20T10:36:11.370Z,11.18
2019-02-20T10:37:11.469Z,11.00
2019-02-20T10:38:11.379Z,10.73
2019-02-20T10:39:11.363Z,10.65
2019-02-20T10:40:11.372Z,10.58
2019-02-20T10:41:11.645Z,10.72
2019-02-20T10:42:11.276Z,10.75
2019-02-20T10:43:11.546Z,10.93
2019-02-20T10:44:11.293Z,11.30
2019-02-20T10:45:11.258Z,11.11
2019-02-20T10:46:11.240Z,11.19
2019-02-20T10:47:11.545Z,11.43
2019-02-20T10:48:11.169Z,11.33
2019-02-20T10:49:11.235Z,11.71
2019-02-20T10:50:11.473Z,11.74
2019-02-20T10:51:11.178Z,11.73
2019-02-20T10:52:11.078Z,11.89
2019-02-20T10:53:11.363Z,12.17
2019-02-20T10:54:11.044Z,11.69
2019-02-20T10:55:11.111Z,11.56
2019-02-20T10:56:11.094Z,11.55
2019-02-20T10:57:11.060Z,11.61
2019-02-20T10:58:11.101Z,11.82
2019-02-20T10:59:11.318Z,12.26
2019-02-20T11:00:10.980Z,11.61
2019-02-20T11:01:11.204Z,11.93
2019-02-20T11:02:11.006Z,12.18
2019-02-20T11:03:11.533Z,12.11
2019-02-20T11:04:10.881Z,12.00
2019-02-20T11:05:11.676Z,11.99
2019-02-20T11:06:10.885Z,11.69
2019-02-20T11:07:11.234Z,11.70
2019-02-20T11:08:10.901Z,11.37
2019-02-20T11:09:11.311Z,11.70
2019-02-20T11:10:10.835Z,12.22
2019-02-20T11:11:11.372Z,12.32
2019-02-20T11:12:10.806Z,12.44
2019-02-20T11:13:10.732Z,12.30
2019-02-20T11:14:11.105Z,12.46
2019-02-20T11:15:10.843Z,12.14
2019-02-20T11:16:11.408Z,12.00
2019-02-20T11:17:11.077Z,11.76
2019-02-20T11:18:10.967Z,12.21
2019-02-20T11:20:10.676Z,12.25
2019-02-20T11:21:11.119Z,12.28
2019-02-20T11:22:16.995Z,12.25
2019-02-20T11:23:10.884Z,11.64
2019-02-20T11:24:10.623Z,11.58
2019-02-20T11:25:10.523Z,11.38
2019-02-20T11:26:17.974Z,11.82
2019-02-20T11:27:10.690Z,12.15
2019-02-20T11:29:10.858Z,12.00
2019-02-20T11:30:10.545Z,12.14
2019-02-20T11:31:10.429Z,11.82
2019-02-20T11:32:10.476Z,12.04
2019-02-20T11:33:10.584Z,12.28
2019-02-20T11:35:10.921Z,11.99
2019-02-20T11:36:10.427Z,12.10
2019-02-20T11:37:10.390Z,11.84
2019-02-20T11:38:10.370Z,11.82
2019-02-20T11:39:11.672Z,11.59
2019-02-20T11:40:10.292Z,12.00
2019-02-20T11:41:10.575Z,11.84
2019-02-20T11:42:10.240Z,12.21
2019-02-20T11:43:10.297Z,12.30
2019-02-20T11:44:10.208Z,11.85
2019-02-20T11:45:10.260Z,11.52
2019-02-20T11:46:10.171Z,11.55
2019-02-20T11:47:10.452Z,11.46
2019-02-20T11:48:10.143Z,11.55
2019-02-20T11:49:10.118Z,12.07
2019-02-20T11:50:10.124Z,11.80
2019-02-20T11:51:10.180Z,12.15
2019-02-20T11:52:10.089Z,12.54
2019-02-20T11:53:10.401Z,12.55
2019-02-20T11:54:10.140Z,12.48
2019-02-20T11:55:10.087Z,12.54
2019-02-20T11:56:10.016Z,12.32
2019-02-20T11:57:10.085Z,12.04
2019-02-20T11:58:09.977Z,12.18
2019-02-20T11:59:10.259Z,12.29
2019-02-20T12:00:10.023Z,12.29
2019-02-20T12:01:09.916Z,12.10
2019-02-20T12:02:09.909Z,12.08
2019-02-20T12:04:09.934Z,11.36
2019-02-20T12:05:10.234Z,11.38
2019-02-20T12:06:09.850Z,11.70
2019-02-20T12:07:09.920Z,11.88
2019-02-20T12:08:09.830Z,11.74
2019-02-20T12:09:09.884Z,11.62
2019-02-20T12:10:09.961Z,12.00
2019-02-20T12:11:10.126Z,12.22
2019-02-20T12:12:09.765Z,12.03
2019-02-20T12:13:09.865Z,12.43
2019-02-20T12:14:09.709Z,12.29
2019-02-20T12:15:09.749Z,12.35
2019-02-20T12:17:10.022Z,11.73
2019-02-20T12:18:17.192Z,12.51
2019-02-20T12:19:09.644Z,11.82
2019-02-20T12:20:09.642Z,12.05
2019-02-20T12:21:09.763Z,12.47
2019-02-20T12:23:09.926Z,12.43
2019-02-20T12:25:09.596Z,12.35
2019-02-20T12:26:09.514Z,11.96
2019-02-20T12:27:09.527Z,12.44
2019-02-20T12:28:09.560Z,12.62
2019-02-20T12:29:11.233Z,12.47
2019-02-20T12:30:09.747Z,12.48
2019-02-20T12:31:09.464Z,12.76
2019-02-20T12:32:09.444Z,12.25
2019-02-20T12:34:09.407Z,11.87
2019-02-20T12:35:09.515Z,11.33
2019-02-20T12:36:09.686Z,11.73
2019-02-20T12:37:09.341Z,11.93
2019-02-20T12:38:09.367Z,12.17
2019-02-20T12:39:09.390Z,12.51
2019-02-20T12:40:09.718Z,12.69
2019-02-20T12:41:10.894Z,12.72
2019-02-20T12:42:09.886Z,12.65
2019-02-20T12:43:09.234Z,12.72
2019-02-20T12:44:09.288Z,13.08
2019-02-20T12:45:09.266Z,12.87
2019-02-20T12:46:09.262Z,12.65
2019-02-20T12:47:09.296Z,12.71
2019-02-20T12:48:09.545Z,12.71
2019-02-20T12:49:09.139Z,12.35
2019-02-20T12:50:09.159Z,11.80
2019-02-20T12:52:09.142Z,11.49
2019-02-20T12:53:09.270Z,11.59
2019-02-20T12:54:09.393Z,11.73
2019-02-20T12:55:09.065Z,11.69
2019-02-20T12:56:10.212Z,11.48
2019-02-20T12:57:10.318Z,11.73
2019-02-20T12:58:08.994Z,12.10
2019-02-20T12:59:09.083Z,12.50
2019-02-20T13:00:09.367Z,12.71
2019-02-20T13:01:08.943Z,12.44
2019-02-20T13:02:08.980Z,12.55
2019-02-20T13:03:08.943Z,12.44
2019-02-20T13:04:08.894Z,12.48
2019-02-20T13:05:08.956Z,12.29
2019-02-20T13:06:09.168Z,12.14
2019-02-20T13:07:08.851Z,11.93
2019-02-20T13:08:09.646Z,11.61
2019-02-20T13:09:08.814Z,11.55
2019-02-20T13:10:08.819Z,11.73
2019-02-20T13:11:08.942Z,11.89
2019-02-20T13:12:09.099Z,11.93
2019-02-20T13:13:08.773Z,12.15
2019-02-20T13:14:08.742Z,11.82
2019-02-20T13:15:08.806Z,11.66
2019-02-20T13:16:10.153Z,11.91
2019-02-20T13:17:08.777Z,12.10
2019-02-20T13:18:09.061Z,12.40
2019-02-20T13:19:09.414Z,12.26
2019-02-20T13:20:09.963Z,12.25
2019-02-20T13:23:09.437Z,12.38
2019-02-20T13:26:08.764Z,12.33
2019-02-20T13:28:08.757Z,11.99
2019-02-20T13:29:08.562Z,11.51
2019-02-20T13:30:08.456Z,11.41
2019-02-20T13:31:08.806Z,11.49
2019-02-20T13:32:08.476Z,11.49
2019-02-20T13:33:08.428Z,11.61
2019-02-20T13:35:08.424Z,11.73
2019-02-20T13:36:08.366Z,11.91
2019-02-20T13:37:08.411Z,11.91
2019-02-20T13:38:08.316Z,11.84
2019-02-20T13:39:08.311Z,12.04
2019-02-20T13:40:08.431Z,11.89
2019-02-20T13:41:08.310Z,11.69
2019-02-20T13:42:08.350Z,11.67
2019-02-20T13:43:08.305Z,11.82
2019-02-20T13:44:08.527Z,11.79
2019-02-20T13:45:08.228Z,11.88
2019-02-20T13:46:08.191Z,11.93
2019-02-20T13:47:08.263Z,11.89
2019-02-20T13:48:08.192Z,11.99
2019-02-20T13:49:08.338Z,11.87
2019-02-20T13:50:08.120Z,11.67
2019-02-20T13:51:08.511Z,11.82
2019-02-20T13:52:08.246Z,11.84
2019-02-20T13:53:08.113Z,12.08
2019-02-20T13:54:08.189Z,12.13
2019-02-20T13:55:08.032Z,11.95
2019-02-20T13:56:08.050Z,11.74
2019-02-20T13:57:08.382Z,11.82
2019-02-20T13:58:11.203Z,11.80
2019-02-20T13:59:08.175Z,11.76
2019-02-20T14:00:08.296Z,11.99
2019-02-20T14:01:07.936Z,12.00
2019-02-20T14:02:07.901Z,12.00
2019-02-20T14:03:08.236Z,11.99
2019-02-20T14:04:08.009Z,12.23
2019-02-20T14:05:08.215Z,12.29
2019-02-20T14:06:07.874Z,12.50
2019-02-20T14:07:07.859Z,12.44
2019-02-20T14:08:07.790Z,12.32
2019-02-20T14:09:08.443Z,12.23
2019-02-20T14:10:07.841Z,12.22
2019-02-20T14:11:07.854Z,12.54
2019-02-20T14:12:07.730Z,12.88
2019-02-20T14:13:07.808Z,12.62
2019-02-20T14:14:09.007Z,12.36
2019-02-20T14:15:08.075Z,12.46
2019-02-20T14:16:07.644Z,12.65
2019-02-20T14:18:07.689Z,12.88
2019-02-20T14:19:07.673Z,12.72
2019-02-20T14:20:07.764Z,12.65
2019-02-20T14:21:07.642Z,12.86
2019-02-20T14:22:07.923Z,13.13
2019-02-20T14:23:09.017Z,12.87
2019-02-20T14:24:07.502Z,12.66
2019-02-20T14:25:07.520Z,12.58
2019-02-20T14:26:07.557Z,12.79
2019-02-20T14:27:10.693Z,13.02
2019-02-20T14:28:07.635Z,12.61
2019-02-20T14:29:07.848Z,12.51
2019-02-20T14:30:08.078Z,12.47
2019-02-20T14:31:07.371Z,12.30
2019-02-20T14:32:07.363Z,12.32
2019-02-20T14:33:07.423Z,12.50
2019-02-20T14:34:07.340Z,12.90
2019-02-20T14:35:07.668Z,12.86
2019-02-20T14:36:07.305Z,12.68
2019-02-20T14:38:07.280Z,12.84
2019-02-20T14:39:07.360Z,12.41
2019-02-20T14:40:07.244Z,12.50
2019-02-20T14:41:07.266Z,12.36
2019-02-20T14:42:07.237Z,12.00
2019-02-20T14:43:07.185Z,11.85
2019-02-20T14:44:07.163Z,12.21
2019-02-20T14:45:07.138Z,12.23
2019-02-20T14:48:07.583Z,11.87
2019-02-20T14:49:07.210Z,11.84
2019-02-20T14:50:07.093Z,12.35
2019-02-20T14:51:07.034Z,12.28
2019-02-20T14:52:07.031Z,12.08
2019-02-20T14:53:06.997Z,12.03
2019-02-20T14:54:07.352Z,11.82
2019-02-20T14:55:06.997Z,11.58
2019-02-20T14:56:06.947Z,11.70
2019-02-20T14:57:06.924Z,11.87
2019-02-20T14:58:07.170Z,12.40
2019-02-20T14:59:06.923Z,12.46
2019-02-20T15:00:07.043Z,12.22
2019-02-20T15:01:06.861Z,12.10
2019-02-20T15:09:06.873Z,12.03
2019-02-20T15:10:06.788Z,11.95
2019-02-20T15:11:06.688Z,11.95
2019-02-20T15:12:06.762Z,12.04
2019-02-20T15:20:06.864Z,11.97
2019-02-20T15:22:06.650Z,11.73
2019-02-20T15:23:07.656Z,11.61
2019-02-20T15:24:07.029Z,11.54
2019-02-20T15:25:06.502Z,11.41
2019-02-20T15:27:06.459Z,11.36
2019-02-20T15:32:08.979Z,11.09